Time;durP1;ratioP1;P1;durP2;ratioP2;P2;SDS_P1;SDS_P2;PMS_P1;PMS_P2;Temp;Humidity;BMP_temperature;BMP_pressure;BME280_temperature;BME280_humidity;BME280_pressure;Samples;Min_cycle;Max_cycle;Signal;HPM_P1;HPM_P2
2023/03/31 00:01:28;;;;;;;17.05;4.35;;;9.40;99.90;;;;;;4942848;29;20043;-73
2023/03/31 00:04:00;;;;;;;16.17;3.53;;;9.40;99.90;;;;;;4935826;29;20673;-73
2023/03/31 00:06:27;;;;;;;17.15;4.13;;;9.40;99.90;;;;;;4932723;29;20043;-73
2023/03/31 00:08:53;;;;;;;17.05;4.20;;;9.40;99.90;;;;;;4935539;29;20059;-72
2023/03/31 00:11:20;;;;;;;17.05;4.20;;;9.30;99.90;;;;;;4934574;29;20406;-72
2023/03/31 00:13:46;;;;;;;20.33;4.30;;;9.30;99.90;;;;;;4935178;29;20040;-73
2023/03/31 00:16:12;;;;;;;17.25;4.72;;;9.30;99.90;;;;;;4935799;29;20046;-72
2023/03/31 00:18:39;;;;;;;19.38;4.13;;;9.20;99.90;;;;;;4918329;29;20072;-72
2023/03/31 00:21:23;;;;;;;19.85;4.47;;;9.20;99.90;;;;;;4944632;29;20158;-72
2023/03/31 00:23:52;;;;;;;18.48;4.15;;;9.10;99.90;;;;;;4935472;29;20118;-72
2023/03/31 00:26:18;;;;;;;15.90;3.50;;;9.10;99.90;;;;;;4934270;29;20039;-72
2023/03/31 00:28:44;;;;;;;21.88;4.88;;;9.10;99.90;;;;;;4935107;29;20047;-72
2023/03/31 00:31:09;;;;;;;18.65;3.80;;;9.20;99.90;;;;;;4940254;29;20118;-73
2023/03/31 00:33:35;;;;;;;16.88;4.03;;;9.20;99.90;;;;;;4937340;29;20078;-73
2023/03/31 00:36:04;;;;;;;15.60;3.90;;;9.20;99.90;;;;;;4951110;29;20458;-73
2023/03/31 00:38:30;;;;;;;12.05;3.28;;;9.10;99.90;;;;;;4933765;29;20040;-72
2023/03/31 00:40:57;;;;;;;13.60;3.80;;;9.10;99.90;;;;;;4938329;29;20039;-72
2023/03/31 00:43:35;;;;;;;18.42;3.88;;;9.00;99.90;;;;;;4929658;29;20046;-72
2023/03/31 00:46:14;;;;;;;15.18;4.18;;;8.90;99.90;;;;;;4941024;29;20051;-73
2023/03/31 00:48:52;;;;;;;17.17;3.67;;;8.90;99.90;;;;;;4928914;29;20044;-73
2023/03/31 00:51:21;;;;;;;13.18;3.75;;;8.80;99.90;;;;;;4934051;29;20099;-72
2023/03/31 00:53:56;;;;;;;17.20;4.15;;;8.80;99.90;;;;;;4943294;29;20504;-72
2023/03/31 00:56:22;;;;;;;16.67;3.72;;;8.80;99.90;;;;;;4946134;28;20050;-72
2023/03/31 00:58:48;;;;;;;17.90;3.50;;;8.80;99.90;;;;;;4915744;29;20116;-72
2023/03/31 01:01:18;;;;;;;22.23;5.07;;;8.80;99.90;;;;;;4917947;29;20373;-72
2023/03/31 01:03:45;;;;;;;16.08;3.88;;;8.80;99.90;;;;;;4933922;29;20704;-72
2023/03/31 01:06:13;;;;;;;20.75;3.72;;;8.80;99.90;;;;;;4948704;29;20051;-72
2023/03/31 01:08:40;;;;;;;22.55;4.28;;;8.80;99.90;;;;;;4941158;29;20078;-72
2023/03/31 01:11:09;;;;;;;19.25;4.93;;;8.80;99.90;;;;;;4947502;29;20078;-73
2023/03/31 01:13:39;;;;;;;19.08;3.92;;;8.70;99.90;;;;;;4953687;29;20057;-73
2023/03/31 01:16:05;;;;;;;19.90;4.40;;;8.80;99.90;;;;;;4940667;29;20043;-73
2023/03/31 01:18:33;;;;;;;16.40;4.03;;;8.80;99.90;;;;;;4941016;29;20093;-73
2023/03/31 01:21:14;;;;;;;14.88;3.80;;;8.80;99.90;;;;;;4915164;29;20091;-72
2023/03/31 01:23:58;;;;;;;14.82;4.18;;;8.80;99.90;;;;;;4915420;29;20071;-72
2023/03/31 01:26:32;;;;;;;16.65;4.22;;;8.80;99.90;;;;;;4938201;29;20054;-72
2023/03/31 01:29:23;;;;;;;18.27;4.78;;;8.90;99.90;;;;;;4929056;29;20046;-72
2023/03/31 01:31:48;;;;;;;17.33;5.03;;;8.90;99.90;;;;;;4948092;28;20505;-73
2023/03/31 01:34:51;;;;;;;15.88;4.93;;;8.90;99.90;;;;;;4933848;29;20051;-72
2023/03/31 01:37:40;;;;;;;12.27;3.85;;;8.90;99.90;;;;;;4940736;29;20074;-72
2023/03/31 01:40:44;;;;;;;15.85;4.20;;;9.00;99.90;;;;;;4933060;29;20506;-72
2023/03/31 01:43:19;;;;;;;18.42;4.53;;;9.00;99.90;;;;;;4928667;29;20391;-72
2023/03/31 01:45:54;;;;;;;16.70;5.10;;;9.00;99.90;;;;;;4934177;29;20083;-73
2023/03/31 01:48:32;;;;;;;12.00;4.05;;;9.00;99.90;;;;;;4931902;29;20058;-73
2023/03/31 01:51:08;;;;;;;17.73;4.97;;;9.10;99.90;;;;;;4933775;29;20051;-73
2023/03/31 01:53:45;;;;;;;10.23;4.22;;;9.10;99.90;;;;;;4950080;29;20047;-73
2023/03/31 01:56:38;;;;;;;15.07;4.88;;;9.10;99.90;;;;;;4933178;29;20051;-72
2023/03/31 01:59:15;;;;;;;14.35;4.60;;;9.10;99.90;;;;;;4909246;29;20048;-73
2023/03/31 02:01:46;;;;;;;12.88;4.68;;;9.20;99.90;;;;;;4932199;29;20047;-73
2023/03/31 02:04:22;;;;;;;10.50;4.18;;;9.20;99.90;;;;;;4950281;29;20121;-72
2023/03/31 02:06:55;;;;;;;15.10;4.93;;;9.20;99.90;;;;;;4940830;29;20058;-73
2023/03/31 02:09:27;;;;;;;;;;;9.20;99.90;;;;;;4937498;29;20051;-72
2023/03/31 02:11:55;;;;;;;14.57;4.90;;;9.20;99.90;;;;;;4947091;28;19919;-72
2023/03/31 02:14:25;;;;;;;12.40;4.15;;;9.30;99.90;;;;;;4928391;29;20051;-72
2023/03/31 02:16:57;;;;;;;16.25;3.88;;;9.30;99.90;;;;;;4925394;29;20047;-72
2023/03/31 02:19:26;;;;;;;14.93;5.33;;;9.30;99.90;;;;;;4931717;29;20043;-72
2023/03/31 02:21:53;;;;;;;12.55;4.40;;;9.40;99.90;;;;;;4935360;29;20309;-72
2023/03/31 02:24:23;;;;;;;11.55;3.90;;;9.40;99.90;;;;;;4944754;29;20118;-72
2023/03/31 02:27:19;;;;;;;14.32;3.80;;;9.40;99.90;;;;;;4951902;29;20130;-72
2023/03/31 02:29:45;;;;;;;12.95;4.25;;;9.40;99.90;;;;;;4943336;29;20055;-73
2023/03/31 02:32:24;;;;;;;10.30;3.78;;;9.40;99.90;;;;;;4932569;29;20047;-72
2023/03/31 02:34:50;;;;;;;11.85;4.05;;;9.50;99.90;;;;;;4916729;29;20042;-73
2023/03/31 02:37:17;;;;;;;14.05;4.32;;;9.40;99.90;;;;;;4943996;29;20044;-73
2023/03/31 02:39:46;;;;;;;12.45;4.25;;;9.40;99.90;;;;;;4943339;29;20546;-72
2023/03/31 02:42:11;;;;;;;11.88;4.70;;;9.40;99.90;;;;;;4951272;29;20051;-72
2023/03/31 02:44:38;;;;;;;12.98;4.30;;;9.40;99.90;;;;;;4936353;29;20062;-72
2023/03/31 02:47:11;;;;;;;13.85;4.80;;;9.40;99.90;;;;;;4927881;29;20043;-72
2023/03/31 02:49:41;;;;;;;14.98;5.35;;;9.50;99.90;;;;;;4926461;29;20052;-72
2023/03/31 02:52:33;;;;;;;11.40;4.63;;;9.50;99.90;;;;;;4933126;29;20119;-73
2023/03/31 02:55:30;;;;;;;12.57;5.15;;;9.50;99.90;;;;;;4933182;29;20043;-72
2023/03/31 02:58:26;;;;;;;12.30;4.95;;;9.50;99.90;;;;;;4923734;29;20476;-72
2023/03/31 03:01:22;;;;;;;11.90;5.78;;;9.50;99.90;;;;;;4912035;29;20055;-72
2023/03/31 03:04:00;;;;;;;13.60;5.97;;;9.50;99.90;;;;;;4935666;29;20027;-73
2023/03/31 03:06:52;;;;;;;15.32;5.78;;;9.50;99.90;;;;;;4944145;29;20078;-73
2023/03/31 03:09:59;;;;;;;13.48;6.32;;;9.50;99.90;;;;;;4942033;29;20059;-72
2023/03/31 03:12:45;;;;;;;15.93;6.68;;;9.50;99.90;;;;;;4936551;23;20055;-77
2023/03/31 03:15:27;;;;;;;14.25;6.35;;;9.50;99.90;;;;;;4935749;29;20040;-77
2023/03/31 03:17:55;;;;;;;13.20;6.45;;;9.50;99.90;;;;;;4935433;29;20098;-76
2023/03/31 03:20:22;;;;;;;16.55;6.68;;;9.40;99.90;;;;;;4934848;29;20035;-76
2023/03/31 03:22:48;;;;;;;15.82;7.07;;;9.50;99.90;;;;;;4935416;29;20063;-77
2023/03/31 03:25:16;;;;;;;13.60;7.15;;;9.40;99.90;;;;;;4944081;28;20519;-77
2023/03/31 03:27:43;;;;;;;15.15;7.10;;;9.40;99.90;;;;;;4943522;29;20061;-77
2023/03/31 03:30:11;;;;;;;12.93;6.85;;;9.40;99.90;;;;;;4939188;29;20044;-77
2023/03/31 03:32:38;;;;;;;14.27;6.78;;;9.40;99.90;;;;;;4938359;29;20039;-77
2023/03/31 03:35:06;;;;;;;13.18;6.45;;;9.40;99.90;;;;;;4939044;29;20049;-77
2023/03/31 03:37:32;;;;;;;17.05;7.55;;;9.40;99.90;;;;;;4938964;29;20035;-76
2023/03/31 03:39:59;;;;;;;14.75;6.30;;;9.50;99.90;;;;;;4938659;29;20039;-77
2023/03/31 03:42:25;;;;;;;13.48;6.10;;;9.40;99.90;;;;;;4946874;28;20517;-77
2023/03/31 03:44:51;;;;;;;13.98;6.40;;;9.40;99.90;;;;;;4958286;28;20042;-76
2023/03/31 03:47:20;;;;;;;15.45;7.20;;;9.50;99.90;;;;;;4954479;28;20043;-76
2023/03/31 03:49:47;;;;;;;13.85;6.72;;;9.40;99.90;;;;;;4938499;29;20055;-76
2023/03/31 03:52:14;;;;;;;17.20;7.13;;;9.50;99.90;;;;;;4946265;29;20035;-77
2023/03/31 03:54:41;;;;;;;12.68;6.80;;;9.50;99.90;;;;;;4938829;29;20035;-77
2023/03/31 03:57:07;;;;;;;14.00;6.50;;;9.40;99.90;;;;;;4938214;29;20051;-77
2023/03/31 03:59:32;;;;;;;11.80;6.47;;;9.40;99.90;;;;;;4954111;29;20036;-77
2023/03/31 04:02:01;;;;;;;14.63;6.65;;;9.40;99.90;;;;;;4948560;29;20043;-77
2023/03/31 04:04:26;;;;;;;16.80;6.13;;;9.50;99.90;;;;;;4966106;28;20090;-77
2023/03/31 04:06:52;;;;;;;15.38;6.47;;;9.40;99.90;;;;;;4978941;28;20078;-77
2023/03/31 04:09:18;;;;;;;16.08;7.05;;;9.40;99.90;;;;;;4938119;29;20043;-77
2023/03/31 04:11:46;;;;;;;18.25;6.82;;;9.40;99.90;;;;;;4938351;29;20050;-77
2023/03/31 04:14:12;;;;;;;11.70;6.28;;;9.40;99.90;;;;;;4938433;29;20102;-77
2023/03/31 04:16:39;;;;;;;11.23;6.90;;;9.40;99.90;;;;;;4938863;28;20047;-77
2023/03/31 04:19:05;;;;;;;12.38;6.47;;;9.40;99.90;;;;;;4958764;28;20042;-77
2023/03/31 04:21:34;;;;;;;13.07;6.43;;;9.40;99.90;;;;;;4937806;29;20404;-77
2023/03/31 04:24:03;;;;;;;12.60;6.32;;;9.40;99.90;;;;;;4938653;29;20101;-77
2023/03/31 04:26:37;;;;;;;15.25;7.00;;;9.40;99.90;;;;;;4938466;29;20075;-77
2023/03/31 04:29:06;;;;;;;14.02;6.50;;;9.40;99.90;;;;;;4938301;29;20469;-77
2023/03/31 04:31:32;;;;;;;16.42;6.75;;;9.40;99.90;;;;;;4936567;29;20134;-77
2023/03/31 04:34:01;;;;;;;12.63;6.43;;;9.40;99.90;;;;;;4938271;29;20050;-77
2023/03/31 04:36:30;;;;;;;13.05;6.68;;;9.40;99.90;;;;;;4950563;28;20101;-77
2023/03/31 04:38:56;;;;;;;15.00;6.72;;;9.50;99.90;;;;;;4934570;29;20047;-77
2023/03/31 04:41:23;;;;;;;11.43;5.75;;;9.40;99.90;;;;;;4936913;29;20094;-77
2023/03/31 04:43:49;;;;;;;14.20;6.53;;;9.50;99.90;;;;;;4938031;29;20054;-77
2023/03/31 04:46:16;;;;;;;13.80;6.20;;;9.40;99.90;;;;;;4943872;28;20042;-77
2023/03/31 04:48:41;;;;;;;14.23;5.75;;;9.40;99.90;;;;;;4965217;28;20038;-77
2023/03/31 04:51:14;;;;;;;12.23;6.82;;;9.40;99.90;;;;;;4956523;28;20494;-77
2023/03/31 04:53:43;;;;;;;12.07;6.43;;;9.50;99.90;;;;;;4953879;29;20110;-77
2023/03/31 04:56:11;;;;;;;14.68;6.97;;;9.40;99.90;;;;;;4941846;28;20142;-77
2023/03/31 04:58:37;;;;;;;14.90;6.50;;;9.40;99.90;;;;;;4949503;28;20451;-77
2023/03/31 05:01:05;;;;;;;12.60;6.57;;;9.40;99.90;;;;;;4941972;29;20074;-77
2023/03/31 05:03:31;;;;;;;15.80;7.05;;;9.40;99.90;;;;;;4935670;29;20050;-77
2023/03/31 05:05:57;;;;;;;12.93;7.07;;;9.40;99.90;;;;;;4936189;29;20047;-77
2023/03/31 05:08:22;;;;;;;15.80;7.18;;;9.40;99.90;;;;;;4937151;29;20109;-77
2023/03/31 05:10:48;;;;;;;11.75;7.45;;;9.40;99.90;;;;;;4937694;29;20567;-77
2023/03/31 05:13:17;;;;;;;16.05;6.82;;;9.40;99.90;;;;;;4936862;29;20377;-77
2023/03/31 05:15:44;;;;;;;15.95;7.22;;;9.50;99.90;;;;;;4936608;29;20039;-77
2023/03/31 05:18:12;;;;;;;16.02;7.05;;;9.40;99.90;;;;;;4952923;29;20035;-77
2023/03/31 05:20:41;;;;;;;17.75;7.63;;;9.40;99.90;;;;;;4951417;29;20461;-77
2023/03/31 05:23:07;;;;;;;12.63;7.00;;;9.40;99.90;;;;;;4937819;29;20058;-77
2023/03/31 05:25:36;;;;;;;13.07;6.70;;;9.40;99.90;;;;;;4930950;29;20513;-77
2023/03/31 05:28:01;;;;;;;16.65;6.97;;;9.40;99.90;;;;;;4935587;29;20049;-77
2023/03/31 05:30:28;;;;;;;15.57;7.25;;;9.40;99.90;;;;;;4953046;29;20412;-77
2023/03/31 05:32:55;;;;;;;17.15;7.13;;;9.40;99.90;;;;;;4936740;29;20047;-77
2023/03/31 05:35:23;;;;;;;16.58;7.10;;;9.40;99.90;;;;;;4936855;29;20457;-77
2023/03/31 05:37:49;;;;;;;11.48;7.18;;;9.40;99.90;;;;;;4934334;29;20078;-77
2023/03/31 05:40:15;;;;;;;15.90;6.78;;;9.40;99.90;;;;;;4932645;29;20039;-77
2023/03/31 05:42:48;;;;;;;10.45;5.80;;;9.40;99.90;;;;;;4931969;29;20083;-78
2023/03/31 05:45:23;;;;;;;13.55;6.35;;;9.40;99.90;;;;;;4929884;29;20048;-77
2023/03/31 05:47:51;;;;;;;13.70;6.80;;;9.40;99.90;;;;;;4935803;29;20055;-77
2023/03/31 05:50:17;;;;;;;14.93;6.88;;;9.30;99.90;;;;;;4939556;29;20086;-77
2023/03/31 05:52:45;;;;;;;12.07;7.15;;;9.30;99.90;;;;;;4932965;29;20046;-81
2023/03/31 05:55:34;;;;;;;14.30;7.63;;;9.30;99.90;;;;;;4937022;29;20078;-79
2023/03/31 05:58:13;;;;;;;15.85;8.25;;;9.30;99.90;;;;;;4933361;29;20105;-80
2023/03/31 06:00:43;;;;;;;13.23;8.27;;;9.40;99.90;;;;;;4955412;29;20051;-78
2023/03/31 06:03:12;;;;;;;19.15;8.82;;;9.30;99.90;;;;;;4953203;29;20126;-79
2023/03/31 06:05:48;;;;;;;14.75;8.30;;;9.30;99.90;;;;;;4939174;29;20051;-79
2023/03/31 06:08:46;;;;;;;14.57;8.13;;;9.40;99.90;;;;;;4953679;29;20043;-79
2023/03/31 06:11:18;;;;;;;17.38;8.00;;;9.40;99.90;;;;;;4930164;29;20054;-79
2023/03/31 06:13:54;;;;;;;12.40;7.30;;;9.40;99.90;;;;;;4930734;29;20066;-78
2023/03/31 06:16:22;;;;;;;11.13;7.93;;;9.40;99.90;;;;;;4934529;29;20075;-76
2023/03/31 06:18:50;;;;;;;14.23;7.65;;;9.40;99.90;;;;;;4948628;29;20078;-77
2023/03/31 06:21:19;;;;;;;16.27;7.85;;;9.40;99.90;;;;;;4941423;29;20766;-76
2023/03/31 06:23:54;;;;;;;18.88;7.10;;;9.40;99.90;;;;;;4934430;29;20097;-76
2023/03/31 06:26:40;;;;;;;13.90;7.30;;;9.40;99.90;;;;;;4927670;29;20039;-77
2023/03/31 06:29:11;;;;;;;15.30;7.20;;;9.40;99.90;;;;;;4940817;28;20050;-76
2023/03/31 06:31:40;;;;;;;13.82;6.05;;;9.40;99.90;;;;;;4953847;28;20054;-77
2023/03/31 06:57:32;;;;;;;13.10;5.72;;;9.60;99.90;;;;;;4816230;29;20527;-78
2023/03/31 07:04:56;;;;;;;11.02;5.45;;;9.60;99.90;;;;;;4801209;29;20115;-78
2023/03/31 07:15:18;;;;;;;12.75;6.00;;;9.70;99.90;;;;;;4796110;29;20181;-79
2023/03/31 07:18:03;;;;;;;11.85;5.32;;;9.70;99.90;;;;;;4887455;29;20493;-79
2023/03/31 07:20:53;;;;;;;18.17;5.70;;;9.90;99.90;;;;;;4938364;29;20047;-78
2023/03/31 07:23:56;;;;;;;16.48;5.88;;;9.80;99.90;;;;;;4953470;28;20046;-83
2023/03/31 07:30:29;;;;;;;17.23;6.30;;;9.90;99.90;;;;;;4940289;28;20043;-80
2023/03/31 07:33:13;;;;;;;15.10;6.40;;;10.00;99.90;;;;;;4977106;28;20046;-77
2023/03/31 07:35:40;;;;;;;15.77;5.75;;;10.00;99.90;;;;;;4944275;28;20250;-76
2023/03/31 07:38:53;;;;;;;14.98;6.45;;;10.00;99.90;;;;;;4952234;28;20121;-76
2023/03/31 07:41:34;;;;;;;13.82;6.00;;;10.10;99.90;;;;;;4960987;28;20039;-76
2023/03/31 07:44:01;;;;;;;12.15;5.85;;;10.10;99.90;;;;;;4939564;29;20205;-76
2023/03/31 07:46:45;;;;;;;13.23;5.68;;;10.20;99.90;;;;;;4939561;29;20134;-76
2023/03/31 07:49:20;;;;;;;13.48;5.65;;;10.20;99.90;;;;;;4950208;29;20111;-76
2023/03/31 07:52:09;;;;;;;12.05;5.43;;;10.20;99.90;;;;;;4951020;28;20486;-78
2023/03/31 07:55:07;;;;;;;14.13;5.55;;;10.30;99.90;;;;;;4962630;28;20051;-78
2023/03/31 07:57:34;;;;;;;11.93;5.47;;;10.20;99.90;;;;;;4938493;29;20062;-78
2023/03/31 08:00:07;;;;;;;10.68;5.30;;;10.30;99.90;;;;;;4931224;29;20046;-78
2023/03/31 08:02:36;;;;;;;11.30;5.53;;;10.30;99.90;;;;;;4937478;29;20059;-78
2023/03/31 08:05:03;;;;;;;12.10;5.50;;;10.30;99.90;;;;;;4936802;29;20046;-78
2023/03/31 08:07:40;;;;;;;9.30;5.15;;;10.40;99.90;;;;;;4935321;29;20047;-77
2023/03/31 08:10:28;;;;;;;8.98;4.97;;;10.40;99.90;;;;;;4931562;29;20057;-78
2023/03/31 08:13:10;;;;;;;10.00;4.95;;;10.50;99.90;;;;;;4932528;29;20114;-77
2023/03/31 08:15:44;;;;;;;11.15;5.25;;;10.50;99.90;;;;;;4935236;29;20114;-76
2023/03/31 08:18:13;;;;;;;14.43;5.18;;;10.50;99.90;;;;;;4939677;29;20035;-76
2023/03/31 08:20:41;;;;;;;10.57;5.20;;;10.60;99.90;;;;;;4937403;29;20039;-76
2023/03/31 08:23:16;;;;;;;11.48;4.72;;;10.60;99.90;;;;;;4938292;29;20047;-77
2023/03/31 08:25:47;;;;;;;9.00;4.20;;;10.60;99.90;;;;;;4936536;28;20043;-76
2023/03/31 08:28:13;;;;;;;7.60;3.60;;;10.60;99.90;;;;;;4938104;29;20074;-76
2023/03/31 08:30:45;;;;;;;13.65;4.32;;;10.60;99.90;;;;;;4948465;28;20055;-76
2023/03/31 08:33:17;;;;;;;10.00;4.07;;;10.60;99.90;;;;;;4937683;29;20066;-76
2023/03/31 08:35:43;;;;;;;6.72;3.63;;;10.60;99.90;;;;;;4938641;28;20141;-77
2023/03/31 08:38:15;;;;;;;11.98;4.75;;;10.70;99.90;;;;;;4956150;28;20487;-76
2023/03/31 08:40:46;;;;;;;7.82;4.03;;;10.70;99.90;;;;;;4942864;28;20114;-76
2023/03/31 08:43:32;;;;;;;7.97;4.00;;;10.70;99.90;;;;;;4934599;29;20043;-76
2023/03/31 08:46:01;;;;;;;6.55;3.72;;;10.80;99.90;;;;;;4939632;28;20136;-76
2023/03/31 08:48:44;;;;;;;7.15;3.95;;;10.80;99.90;;;;;;4946142;29;20051;-77
2023/03/31 08:51:32;;;;;;;9.13;3.43;;;10.90;99.90;;;;;;4929363;28;20050;-77
2023/03/31 08:54:11;;;;;;;6.88;3.00;;;10.90;99.90;;;;;;4939223;29;20113;-76
2023/03/31 08:56:41;;;;;;;8.02;3.35;;;10.90;99.90;;;;;;4945065;29;20043;-76
2023/03/31 08:59:46;;;;;;;5.25;2.40;;;10.90;99.90;;;;;;4954019;29;20078;-76
2023/03/31 09:02:51;;;;;;;7.00;3.00;;;10.80;99.90;;;;;;4943582;28;20054;-77
2023/03/31 09:05:38;;;;;;;7.32;2.85;;;10.80;99.90;;;;;;4965861;28;20050;-77
2023/03/31 09:08:13;;;;;;;4.68;2.42;;;10.80;99.90;;;;;;4922466;29;20117;-77
2023/03/31 09:10:49;;;;;;;5.60;2.88;;;10.80;99.90;;;;;;4938163;29;20059;-76
2023/03/31 09:13:35;;;;;;;6.95;3.03;;;10.80;99.90;;;;;;4955945;23;20059;-72
2023/03/31 09:16:22;;;;;;;6.75;3.10;;;10.70;99.90;;;;;;4933028;29;20622;-73
2023/03/31 09:18:49;;;;;;;9.25;3.08;;;10.70;99.90;;;;;;4932159;29;20183;-73
2023/03/31 09:21:15;;;;;;;6.63;3.15;;;10.70;99.90;;;;;;4933403;29;20043;-73
2023/03/31 09:24:11;;;;;;;6.68;3.03;;;10.70;99.90;;;;;;4921294;29;20036;-73
2023/03/31 09:26:49;;;;;;;7.97;2.38;;;10.80;99.90;;;;;;4914846;29;20047;-73
2023/03/31 09:29:30;;;;;;;7.72;2.60;;;10.80;99.90;;;;;;4914832;29;20050;-72
2023/03/31 09:32:05;;;;;;;10.73;3.25;;;10.80;99.90;;;;;;4926045;29;20048;-72
2023/03/31 09:34:33;;;;;;;7.75;2.70;;;10.80;99.90;;;;;;4912724;29;20502;-73
2023/03/31 09:36:58;;;;;;;9.15;2.70;;;10.90;99.90;;;;;;4926205;29;20511;-73
2023/03/31 09:39:24;;;;;;;6.07;2.78;;;10.90;99.90;;;;;;4914480;29;20131;-73
2023/03/31 09:41:51;;;;;;;7.07;2.60;;;11.00;99.90;;;;;;4926230;29;20531;-73
2023/03/31 09:44:45;;;;;;;6.80;2.70;;;11.10;99.90;;;;;;4913620;29;20394;-73
2023/03/31 09:47:18;;;;;;;6.35;2.88;;;11.30;99.90;;;;;;4909274;29;20419;-73
2023/03/31 09:49:45;;;;;;;5.60;2.55;;;11.40;99.90;;;;;;4916400;29;20036;-72
2023/03/31 09:52:43;;;;;;;5.55;2.63;;;11.40;99.90;;;;;;4911226;29;20048;-73
2023/03/31 09:55:29;;;;;;;5.97;2.38;;;11.50;99.90;;;;;;4899712;29;20112;-74
2023/03/31 09:57:54;;;;;;;5.28;2.40;;;11.50;99.90;;;;;;4906515;29;20135;-73
2023/03/31 10:00:22;;;;;;;5.25;1.80;;;11.60;99.90;;;;;;4897447;29;20490;-73
2023/03/31 10:02:52;;;;;;;4.43;2.03;;;11.80;99.90;;;;;;4924219;29;20490;-72
2023/03/31 10:05:37;;;;;;;6.35;2.30;;;12.00;99.90;;;;;;4915288;29;20048;-72
2023/03/31 10:08:32;;;;;;;5.20;1.90;;;12.30;99.90;;;;;;4907769;29;20036;-72
2023/03/31 10:11:00;;;;;;;6.03;1.95;;;12.50;99.90;;;;;;4910490;29;20099;-72
2023/03/31 10:13:29;;;;;;;5.40;2.28;;;12.70;99.90;;;;;;4917686;29;20054;-72
2023/03/31 10:16:02;;;;;;;6.80;2.28;;;12.80;99.90;;;;;;4907367;29;20040;-72
2023/03/31 10:18:40;;;;;;;5.28;2.10;;;13.00;99.90;;;;;;4903720;29;20507;-72
2023/03/31 10:21:22;;;;;;;3.33;1.73;;;13.00;99.90;;;;;;4909796;29;20055;-72
2023/03/31 10:23:48;;;;;;;5.72;2.00;;;12.90;99.90;;;;;;4913832;29;20048;-72
2023/03/31 10:26:21;;;;;;;6.78;2.13;;;12.70;99.90;;;;;;4913827;29;20056;-72
2023/03/31 10:28:51;;;;;;;5.00;1.75;;;12.50;99.90;;;;;;4913819;29;20048;-72
2023/03/31 10:31:33;;;;;;;4.68;1.70;;;12.30;99.90;;;;;;4918441;29;20090;-72
2023/03/31 10:34:05;;;;;;;6.90;2.30;;;12.10;99.90;;;;;;4905998;29;20099;-72
2023/03/31 10:36:31;;;;;;;5.40;2.08;;;11.90;99.90;;;;;;4910933;29;20127;-72
2023/03/31 10:38:57;;;;;;;4.80;2.10;;;11.80;99.90;;;;;;4911903;29;20119;-72
2023/03/31 10:41:26;;;;;;;5.63;2.38;;;11.70;99.90;;;;;;4914632;29;20044;-72
2023/03/31 10:43:57;;;;;;;6.43;2.20;;;11.80;99.90;;;;;;4911699;29;20101;-71
2023/03/31 10:47:03;;;;;;;5.68;2.67;;;11.80;99.90;;;;;;4913063;29;20466;-71
2023/03/31 10:49:29;;;;;;;7.00;2.67;;;11.90;99.90;;;;;;4854826;29;20050;-72
2023/03/31 10:51:57;;;;;;;16.42;3.60;;;12.00;99.90;;;;;;4897691;29;20063;-71
2023/03/31 10:54:24;;;;;;;5.40;2.45;;;12.10;99.90;;;;;;4910926;29;20044;-72
2023/03/31 10:56:57;;;;;;;5.80;2.47;;;12.10;99.90;;;;;;4912924;29;20040;-72
2023/03/31 10:59:51;;;;;;;5.95;2.60;;;12.20;99.90;;;;;;4912027;29;20127;-72
2023/03/31 11:02:35;;;;;;;5.95;2.80;;;12.20;99.90;;;;;;4902138;29;20470;-71
2023/03/31 11:05:03;;;;;;;6.25;2.95;;;12.30;99.90;;;;;;4908414;29;20123;-71
2023/03/31 11:07:47;;;;;;;6.65;3.13;;;12.40;99.90;;;;;;4907228;29;20141;-72
2023/03/31 11:10:22;;;;;;;6.78;3.10;;;12.30;99.90;;;;;;4910165;29;20250;-71
2023/03/31 11:13:12;;;;;;;6.10;2.85;;;12.30;99.90;;;;;;4910644;29;20102;-72
2023/03/31 11:15:53;;;;;;;6.40;3.58;;;12.40;99.90;;;;;;4935436;29;20549;-72
2023/03/31 11:18:53;;;;;;;7.70;2.95;;;12.40;99.90;;;;;;4921850;29;20048;-71
2023/03/31 11:21:26;;;;;;;10.05;3.97;;;12.50;99.90;;;;;;4907075;29;20095;-72
2023/03/31 11:24:36;;;;;;;6.50;3.35;;;12.60;99.90;;;;;;4912729;29;20505;-72
2023/03/31 11:27:11;;;;;;;10.75;3.42;;;12.70;99.90;;;;;;4862482;29;20152;-72
2023/03/31 11:29:52;;;;;;;7.93;3.65;;;12.80;99.90;;;;;;4897179;29;20139;-72
2023/03/31 11:32:44;;;;;;;8.85;3.65;;;12.90;99.90;;;;;;4932590;29;20059;-71
2023/03/31 11:35:28;;;;;;;8.20;3.53;;;13.10;99.90;;;;;;4907644;29;20438;-71
2023/03/31 11:38:23;;;;;;;12.48;3.97;;;13.30;99.90;;;;;;4913376;29;20040;-74
2023/03/31 11:40:56;;;;;;;10.13;3.80;;;13.30;99.90;;;;;;4911169;29;21389;-74
2023/03/31 11:43:47;;;;;;;9.07;3.50;;;13.30;99.90;;;;;;4915070;29;20039;-74
2023/03/31 11:46:17;;;;;;;9.10;3.25;;;13.40;99.90;;;;;;4908789;29;20050;-74
2023/03/31 11:48:56;;;;;;;7.70;3.60;;;13.60;99.90;;;;;;4916016;29;20052;-74
2023/03/31 11:51:51;;;;;;;8.35;2.92;;;14.20;99.90;;;;;;4915357;29;20470;-74
2023/03/31 11:54:24;;;;;;;8.35;3.05;;;14.60;99.90;;;;;;4894757;29;20041;-74
2023/03/31 11:56:51;;;;;;;7.95;3.40;;;14.60;99.90;;;;;;4913423;29;20040;-74
2023/03/31 11:59:21;;;;;;;13.32;3.53;;;14.40;99.90;;;;;;4905926;29;20127;-74
2023/03/31 12:02:00;;;;;;;8.68;3.22;;;14.30;99.90;;;;;;4899445;29;20048;-74
2023/03/31 12:04:42;;;;;;;10.13;3.42;;;14.20;99.90;;;;;;4913912;29;20083;-74
2023/03/31 12:07:28;;;;;;;12.50;3.47;;;14.10;99.90;;;;;;4905821;29;20056;-72
2023/03/31 12:10:20;;;;;;;9.30;3.38;;;14.10;99.90;;;;;;4919596;29;20056;-73
2023/03/31 12:12:50;;;;;;;8.50;3.10;;;14.10;99.90;;;;;;4915393;29;20083;-73
2023/03/31 12:15:31;;;;;;;12.10;3.30;;;14.00;99.90;;;;;;4900513;29;20044;-73
2023/03/31 12:18:08;;;;;;;12.05;3.03;;;13.80;99.90;;;;;;4914785;29;20048;-74
2023/03/31 12:20:40;;;;;;;10.32;3.00;;;13.70;99.90;;;;;;4911248;29;20496;-73
2023/03/31 12:23:12;;;;;;;11.90;2.95;;;13.60;99.90;;;;;;4930402;29;20249;-72
2023/03/31 12:25:49;;;;;;;10.93;3.60;;;13.40;99.90;;;;;;4927375;29;20059;-73
2023/03/31 12:28:15;;;;;;;11.43;3.15;;;13.30;99.90;;;;;;4920823;29;20499;-74
2023/03/31 12:30:42;;;;;;;10.93;3.10;;;13.20;99.90;;;;;;4928588;29;20090;-73
2023/03/31 12:33:16;;;;;;;10.13;3.03;;;13.10;99.90;;;;;;4937322;29;20075;-73
2023/03/31 12:36:05;;;;;;;14.68;3.80;;;13.20;99.90;;;;;;4901738;29;20036;-73
2023/03/31 12:38:55;;;;;;;10.32;3.15;;;13.20;99.90;;;;;;4908472;29;20048;-73
2023/03/31 12:41:26;;;;;;;11.45;3.40;;;13.40;99.90;;;;;;4916027;29;20119;-73
2023/03/31 12:44:09;;;;;;;10.82;2.97;;;13.30;99.90;;;;;;4908029;29;20119;-73
2023/03/31 12:47:02;;;;;;;12.15;3.47;;;13.40;99.90;;;;;;4916062;29;20083;-74
2023/03/31 12:49:28;;;;;;;;;;;13.50;99.90;;;;;;4923607;29;20048;-73
2023/03/31 12:51:56;;;;;;;10.30;2.78;;;13.60;99.90;;;;;;4931482;29;20335;-73
2023/03/31 12:54:43;;;;;;;8.48;2.88;;;13.70;99.90;;;;;;4915897;29;20044;-73
2023/03/31 12:57:09;;;;;;;8.15;2.10;;;13.80;99.90;;;;;;4914732;29;20040;-73
2023/03/31 12:59:41;;;;;;;10.32;2.83;;;13.70;99.90;;;;;;4907413;29;20067;-73
2023/03/31 13:02:18;;;;;;;8.10;2.58;;;13.60;99.90;;;;;;4896913;29;20051;-73
2023/03/31 13:04:44;;;;;;;10.57;2.95;;;13.40;99.90;;;;;;4897324;29;20045;-73
2023/03/31 13:07:40;;;;;;;8.98;2.88;;;13.20;99.90;;;;;;4909018;29;20055;-73
2023/03/31 13:10:23;;;;;;;10.75;3.00;;;13.10;99.90;;;;;;4897036;29;20061;-73
2023/03/31 13:13:02;;;;;;;10.77;3.38;;;13.00;99.90;;;;;;4912201;29;20158;-73
2023/03/31 13:15:29;;;;;;;10.43;2.90;;;13.10;99.90;;;;;;4896674;29;20056;-73
2023/03/31 13:17:58;;;;;;;7.57;2.30;;;13.10;99.90;;;;;;4896689;29;20142;-73
2023/03/31 13:20:27;;;;;;;7.90;2.53;;;13.20;99.90;;;;;;4902564;29;20032;-73
2023/03/31 13:23:02;;;;;;;10.15;2.25;;;13.10;99.90;;;;;;4904178;29;20045;-73
2023/03/31 13:25:28;;;;;;;11.65;2.47;;;12.90;99.90;;;;;;4896712;29;20538;-73
2023/03/31 13:27:54;;;;;;;7.47;2.10;;;12.60;99.90;;;;;;4896575;29;20041;-73
2023/03/31 13:30:50;;;;;;;7.25;1.90;;;12.50;99.90;;;;;;4896530;29;20058;-73
2023/03/31 13:33:40;;;;;;;7.90;1.92;;;12.50;99.90;;;;;;4894230;29;20548;-73
2023/03/31 13:36:35;;;;;;;5.93;1.60;;;12.70;99.90;;;;;;4911231;29;20503;-73
2023/03/31 13:39:28;;;;;;;7.00;1.50;;;12.80;99.90;;;;;;4907791;29;20044;-73
2023/03/31 13:41:56;;;;;;;;;;;12.90;99.90;;;;;;4904532;29;20045;-73
2023/03/31 13:44:50;;;;;;;7.80;2.17;;;12.90;99.90;;;;;;4911908;29;19923;-73
2023/03/31 13:47:35;;;;;;;5.53;1.83;;;12.90;99.90;;;;;;4880621;29;20048;-73
2023/03/31 13:50:41;;;;;;;4.35;1.45;;;13.00;99.90;;;;;;4908062;29;20036;-73
2023/03/31 13:53:39;;;;;;;6.18;1.52;;;12.80;99.90;;;;;;4895845;29;20040;-73
2023/03/31 13:56:25;;;;;;;5.78;1.63;;;12.70;99.90;;;;;;4896046;29;20059;-73
2023/03/31 13:59:04;;;;;;;8.10;1.92;;;12.50;99.90;;;;;;4912163;29;20482;-73
2023/03/31 14:01:51;;;;;;;6.68;2.00;;;12.40;99.90;;;;;;4911564;29;20072;-73
2023/03/31 14:04:44;;;;;;;6.57;1.60;;;12.30;99.90;;;;;;4911687;29;20040;-73
2023/03/31 14:07:31;;;;;;;4.70;1.65;;;12.20;99.90;;;;;;4904307;29;20402;-73